createdAt,value
2022-10-23T00:01:43.999Z,19.02
2022-10-23T00:04:21.270Z,19.03
2022-10-23T00:06:49.902Z,19.03
2022-10-23T00:09:21.633Z,19.05
2022-10-23T00:11:50.737Z,19.04
2022-10-23T00:14:23.831Z,19.03
2022-10-23T00:16:51.686Z,19.03
2022-10-23T00:19:18.738Z,19.04
2022-10-23T00:21:45.774Z,19.07
2022-10-23T00:24:12.844Z,19.06
2022-10-23T00:26:40.707Z,19.09
2022-10-23T00:29:08.727Z,19.11
2022-10-23T00:31:36.759Z,19.13
2022-10-23T00:34:04.236Z,19.14
2022-10-23T00:36:31.518Z,19.16
2022-10-23T00:38:58.530Z,19.15
2022-10-23T00:41:29.202Z,19.17
2022-10-23T00:44:09.188Z,19.19
2022-10-23T00:46:38.678Z,19.20
2022-10-23T00:49:06.538Z,19.21
2022-10-23T00:51:45.153Z,19.21
2022-10-23T00:54:29.683Z,19.21
2022-10-23T00:57:00.217Z,19.22
2022-10-23T00:59:28.324Z,19.23
2022-10-23T01:01:55.691Z,19.23
2022-10-23T01:04:24.167Z,19.21
2022-10-23T01:07:15.589Z,19.20
2022-10-23T01:10:14.788Z,19.19
2022-10-23T01:13:04.627Z,19.19
2022-10-23T01:15:53.486Z,19.18
2022-10-23T01:18:28.005Z,19.17
2022-10-23T01:21:19.171Z,19.16
2022-10-23T01:24:37.530Z,19.15
2022-10-23T01:27:27.824Z,19.15
2022-10-23T01:30:04.129Z,19.15
2022-10-23T01:33:08.807Z,19.13
2022-10-23T01:36:11.581Z,19.14
2022-10-23T01:38:45.285Z,19.14
2022-10-23T01:41:33.600Z,19.15
2022-10-23T01:44:25.049Z,19.12
2022-10-23T01:46:53.911Z,19.13
2022-10-23T01:49:23.088Z,19.12
2022-10-23T01:52:02.355Z,19.13
2022-10-23T01:54:34.658Z,19.14
2022-10-23T01:57:03.582Z,19.13
2022-10-23T01:59:42.182Z,19.12
2022-10-23T02:02:13.404Z,19.10
2022-10-23T02:05:02.325Z,19.10
2022-10-23T02:07:30.336Z,19.10
2022-10-23T02:09:58.075Z,19.08
2022-10-23T02:12:55.872Z,19.07
2022-10-23T02:15:36.439Z,19.01
2022-10-23T02:18:09.723Z,18.97
2022-10-23T02:23:21.619Z,18.91
2022-10-23T02:26:08.248Z,18.91
2022-10-23T02:28:44.159Z,18.89
2022-10-23T02:31:17.315Z,18.89
2022-10-23T02:33:46.969Z,18.87
2022-10-23T02:36:16.098Z,18.86
2022-10-23T02:38:45.108Z,18.88
2022-10-23T02:41:43.659Z,18.88
2022-10-23T02:44:37.765Z,18.87
2022-10-23T02:47:26.650Z,18.86
2022-10-23T02:50:18.766Z,18.80
2022-10-23T02:53:00.004Z,18.76
2022-10-23T02:55:45.173Z,18.75
2022-10-23T02:58:27.811Z,18.73
2022-10-23T03:01:06.178Z,18.73
2022-10-23T03:03:42.052Z,18.73
2022-10-23T03:06:09.137Z,18.72
2022-10-23T03:08:53.471Z,18.70
2022-10-23T03:11:21.001Z,18.69
2022-10-23T03:13:49.511Z,18.68
2022-10-23T03:16:16.492Z,18.68
2022-10-23T03:18:49.537Z,18.67
2022-10-23T03:21:17.596Z,18.66
2022-10-23T03:23:44.555Z,18.65
2022-10-23T03:26:17.185Z,18.61
2022-10-23T03:28:44.149Z,18.58
2022-10-23T03:31:11.994Z,18.57
2022-10-23T03:33:40.055Z,18.51
2022-10-23T03:36:10.174Z,18.46
2022-10-23T03:38:37.177Z,18.40
2022-10-23T03:41:05.383Z,18.37
2022-10-23T03:43:32.365Z,18.34
2022-10-23T03:45:59.275Z,18.29
2022-10-23T03:48:26.566Z,18.27
2022-10-23T03:50:57.697Z,18.23
2022-10-23T03:53:24.677Z,18.21
2022-10-23T03:55:51.633Z,18.21
2022-10-23T03:58:18.564Z,18.17
2022-10-23T04:00:46.135Z,18.15
2022-10-23T04:03:13.002Z,18.16
2022-10-23T04:05:42.496Z,18.15
2022-10-23T04:08:10.604Z,18.14
2022-10-23T04:10:37.990Z,18.14
2022-10-23T04:13:05.020Z,18.13
2022-10-23T04:15:35.565Z,18.13
2022-10-23T04:18:02.911Z,18.14
2022-10-23T04:20:33.093Z,18.15
2022-10-23T04:23:02.511Z,18.15
2022-10-23T04:25:29.539Z,18.12
2022-10-23T04:27:56.417Z,18.12
2022-10-23T04:30:23.367Z,18.14
2022-10-23T04:32:51.848Z,18.14
2022-10-23T04:35:19.629Z,18.18
2022-10-23T04:37:46.739Z,18.18
2022-10-23T04:40:13.742Z,18.20
2022-10-23T04:42:40.954Z,18.22
2022-10-23T04:45:08.634Z,18.21
2022-10-23T04:47:35.886Z,18.21
2022-10-23T04:50:03.804Z,18.23
2022-10-23T04:52:57.885Z,18.21
2022-10-23T04:55:27.922Z,18.24
2022-10-23T04:58:15.086Z,18.25
2022-10-23T05:00:44.103Z,18.26
2022-10-23T05:03:15.221Z,18.23
2022-10-23T05:05:42.857Z,18.23
2022-10-23T05:08:29.460Z,18.22
2022-10-23T05:11:15.201Z,18.22
2022-10-23T05:13:45.920Z,18.24
2022-10-23T05:16:31.849Z,18.25
2022-10-23T05:19:00.213Z,18.22
2022-10-23T05:21:30.274Z,18.23
2022-10-23T05:26:32.599Z,18.19
2022-10-23T05:29:05.176Z,18.19
2022-10-23T05:31:35.348Z,18.21
2022-10-23T05:34:13.424Z,18.20
2022-10-23T05:36:44.877Z,18.19
2022-10-23T05:39:13.458Z,18.21
2022-10-23T05:41:40.510Z,18.21
2022-10-23T05:44:07.439Z,18.22
2022-10-23T05:47:02.454Z,18.21
2022-10-23T05:49:38.227Z,18.20
2022-10-23T05:52:14.342Z,18.21
2022-10-23T05:54:52.349Z,18.21
2022-10-23T05:57:37.683Z,18.17
2022-10-23T06:00:09.288Z,18.17
2022-10-23T06:02:42.034Z,18.16
2022-10-23T06:05:22.773Z,18.13
2022-10-23T06:08:19.418Z,18.11
2022-10-23T06:10:50.560Z,18.11
2022-10-23T06:13:18.829Z,18.11
2022-10-23T06:15:46.157Z,18.11
2022-10-23T06:18:25.414Z,18.10
2022-10-23T06:21:01.690Z,18.13
2022-10-23T06:23:32.631Z,18.11
2022-10-23T06:26:25.991Z,18.11
2022-10-23T06:29:05.284Z,18.13
2022-10-23T06:31:32.426Z,18.13
2022-10-23T06:34:00.108Z,18.17
2022-10-23T06:36:29.408Z,18.17
2022-10-23T06:39:07.257Z,18.17
2022-10-23T06:42:09.329Z,18.18
2022-10-23T06:45:07.215Z,18.21
2022-10-23T06:47:54.594Z,18.22
2022-10-23T06:50:40.252Z,18.28
2022-10-23T06:53:12.560Z,18.26
2022-10-23T06:55:45.330Z,18.30
2022-10-23T06:58:12.532Z,18.31
2022-10-23T07:00:55.217Z,18.34
2022-10-23T07:03:22.567Z,18.36
2022-10-23T07:05:49.749Z,18.37
2022-10-23T07:08:16.753Z,18.39
2022-10-23T07:10:47.978Z,18.40
2022-10-23T07:13:16.482Z,18.41
2022-10-23T07:16:19.779Z,18.46
2022-10-23T07:18:58.705Z,18.50
2022-10-23T07:21:34.855Z,18.53
2022-10-23T07:24:22.173Z,18.54
2022-10-23T07:29:17.493Z,18.58
2022-10-23T07:31:44.472Z,18.64
2022-10-23T07:34:31.712Z,18.65
2022-10-23T07:37:30.065Z,18.69
2022-10-23T07:39:59.277Z,18.70
2022-10-23T07:42:26.293Z,18.73
2022-10-23T07:44:53.716Z,18.77
2022-10-23T07:47:21.814Z,18.78
2022-10-23T07:49:51.389Z,18.80
2022-10-23T07:52:20.415Z,18.82
2022-10-23T07:55:22.606Z,18.85
2022-10-23T07:58:08.049Z,18.89
2022-10-23T08:00:41.467Z,18.92
2022-10-23T08:03:16.628Z,18.96
2022-10-23T08:05:44.606Z,19.00
2022-10-23T08:08:11.866Z,19.02
2022-10-23T08:10:41.776Z,19.07
2022-10-23T08:13:14.135Z,19.11
2022-10-23T08:15:56.783Z,19.13
2022-10-23T08:18:45.385Z,19.15
2022-10-23T08:21:12.686Z,19.17
2022-10-23T08:23:39.832Z,19.19
2022-10-23T08:26:08.395Z,19.26
2022-10-23T08:28:36.248Z,19.33
2022-10-23T08:31:16.834Z,19.39
2022-10-23T08:33:59.403Z,19.43
2022-10-23T08:36:29.071Z,19.43
2022-10-23T08:38:58.211Z,19.48
2022-10-23T08:41:37.686Z,19.52
2022-10-23T08:44:41.815Z,19.58
2022-10-23T08:47:20.294Z,19.64
2022-10-23T08:50:19.917Z,19.67
2022-10-23T08:53:00.441Z,19.71
2022-10-23T08:55:35.761Z,19.74
2022-10-23T08:58:15.277Z,19.75
2022-10-23T09:00:45.429Z,19.81
2022-10-23T09:03:13.480Z,19.88
2022-10-23T09:06:12.381Z,19.94
2022-10-23T09:09:23.931Z,19.98
2022-10-23T09:12:07.388Z,20.08
2022-10-23T09:15:16.514Z,20.12
2022-10-23T09:17:44.459Z,20.18
2022-10-23T09:20:25.806Z,20.20
2022-10-23T09:22:59.659Z,20.24
2022-10-23T09:25:29.513Z,20.21
2022-10-23T09:28:04.270Z,20.26
2022-10-23T09:30:42.528Z,20.31
2022-10-23T09:33:24.163Z,20.34
2022-10-23T09:36:01.578Z,20.35
2022-10-23T09:38:46.628Z,20.39
2022-10-23T09:41:20.582Z,20.39
2022-10-23T09:44:07.650Z,20.38
2022-10-23T09:46:45.314Z,20.39
2022-10-23T09:49:22.244Z,20.38
2022-10-23T09:52:05.007Z,20.39
2022-10-23T09:54:38.268Z,20.41
2022-10-23T09:57:38.370Z,20.44
2022-10-23T10:00:17.179Z,20.46
2022-10-23T10:03:00.365Z,20.51
2022-10-23T10:06:03.126Z,20.54
2022-10-23T10:09:02.081Z,20.63
2022-10-23T10:11:44.680Z,20.67
2022-10-23T10:14:42.640Z,20.78
2022-10-23T10:17:48.028Z,20.87
2022-10-23T10:20:29.096Z,20.93
2022-10-23T10:23:07.045Z,20.98
2022-10-23T10:26:23.161Z,21.04
2022-10-23T10:29:25.951Z,21.01
2022-10-23T10:32:46.517Z,21.02
2022-10-23T10:35:46.075Z,21.03
2022-10-23T10:38:45.689Z,21.05
2022-10-23T10:42:02.057Z,21.11
2022-10-23T10:45:00.153Z,21.16
2022-10-23T10:48:18.266Z,21.27
2022-10-23T10:51:19.063Z,21.37
2022-10-23T10:54:08.555Z,21.44
2022-10-23T10:56:40.076Z,21.51
2022-10-23T10:59:38.243Z,21.57
2022-10-23T11:02:34.427Z,21.65
2022-10-23T11:05:19.557Z,21.74
2022-10-23T11:07:59.937Z,21.80
2022-10-23T11:10:28.682Z,21.85
2022-10-23T11:12:55.932Z,21.88
2022-10-23T11:15:30.821Z,21.93
2022-10-23T11:18:02.666Z,21.97
2022-10-23T11:20:50.813Z,21.97
2022-10-23T11:23:35.879Z,22.04
2022-10-23T11:26:36.741Z,22.10
2022-10-23T11:29:16.578Z,22.11
2022-10-23T11:32:07.354Z,22.12
2022-10-23T11:34:51.978Z,22.16
2022-10-23T11:37:24.576Z,22.22
2022-10-23T11:40:13.144Z,22.19
2022-10-23T11:42:40.280Z,22.17
2022-10-23T11:45:36.474Z,22.20
2022-10-23T11:48:06.710Z,22.20
2022-10-23T11:50:46.198Z,22.21
2022-10-23T11:53:31.461Z,22.21
2022-10-23T11:56:06.740Z,22.20
2022-10-23T11:58:49.241Z,22.22
2022-10-23T12:01:26.216Z,22.20
2022-10-23T12:04:13.764Z,22.21
2022-10-23T12:06:46.011Z,22.25
2022-10-23T12:09:45.269Z,22.27
2022-10-23T12:12:12.248Z,22.24
2022-10-23T12:14:48.010Z,22.25
2022-10-23T12:17:23.735Z,22.20
2022-10-23T12:20:12.574Z,22.22
2022-10-23T12:23:23.790Z,22.24
2022-10-23T12:26:11.188Z,22.24
2022-10-23T12:29:07.456Z,22.26
2022-10-23T12:31:48.043Z,22.30
2022-10-23T12:35:03.511Z,22.36
2022-10-23T12:38:15.410Z,22.36
2022-10-23T12:41:01.609Z,22.39
2022-10-23T12:43:35.261Z,22.43
2022-10-23T12:46:28.282Z,22.46
2022-10-23T12:49:04.067Z,22.48
2022-10-23T12:51:35.854Z,22.51
2022-10-23T12:54:04.422Z,22.55
2022-10-23T12:56:39.112Z,22.57
2022-10-23T12:59:17.103Z,22.61
2022-10-23T13:01:46.889Z,22.63
2022-10-23T13:04:35.081Z,22.62
2022-10-23T13:07:03.906Z,22.61
2022-10-23T13:09:39.994Z,22.63
2022-10-23T13:12:31.358Z,22.64
2022-10-23T13:15:16.210Z,22.66
2022-10-23T13:17:47.574Z,22.68
2022-10-23T13:20:17.839Z,22.70
2022-10-23T13:22:48.229Z,22.70
2022-10-23T13:25:27.423Z,22.73
2022-10-23T13:28:16.372Z,22.74
2022-10-23T13:30:48.211Z,22.77
2022-10-23T13:33:31.277Z,22.80
2022-10-23T13:36:03.161Z,22.81
2022-10-23T13:38:36.635Z,22.82
2022-10-23T13:41:11.802Z,22.82
2022-10-23T13:43:38.901Z,22.84
2022-10-23T13:48:38.333Z,22.82
2022-10-23T13:51:20.744Z,22.85
2022-10-23T13:53:48.169Z,22.86
2022-10-23T13:56:18.535Z,22.92
2022-10-23T13:58:46.413Z,22.95
2022-10-23T14:01:33.478Z,23.03
2022-10-23T14:04:00.610Z,23.03
2022-10-23T14:06:27.807Z,23.05
2022-10-23T14:08:54.788Z,23.09
2022-10-23T14:11:22.430Z,23.14
2022-10-23T14:13:52.990Z,23.14
2022-10-23T14:16:21.542Z,23.16
2022-10-23T14:18:49.130Z,23.14
2022-10-23T14:21:20.213Z,23.15
2022-10-23T14:23:48.600Z,23.16
2022-10-23T14:26:20.046Z,23.16
2022-10-23T14:28:47.955Z,23.16
2022-10-23T14:31:17.498Z,23.16
2022-10-23T14:33:46.359Z,23.14
2022-10-23T14:36:14.016Z,23.15
2022-10-23T14:38:41.075Z,23.13
2022-10-23T14:41:13.705Z,23.10
2022-10-23T14:43:40.914Z,23.07
2022-10-23T14:46:17.179Z,23.06
2022-10-23T14:48:46.300Z,23.06
2022-10-23T14:51:18.627Z,23.07
2022-10-23T14:53:46.871Z,23.06
2022-10-23T14:56:15.320Z,23.06
2022-10-23T14:58:43.404Z,23.05
2022-10-23T15:01:11.023Z,23.05
2022-10-23T15:03:38.685Z,23.01
2022-10-23T15:06:07.238Z,23.02
2022-10-23T15:08:35.401Z,23.01
2022-10-23T15:11:07.687Z,22.98
2022-10-23T15:13:37.538Z,22.94
2022-10-23T15:16:08.419Z,22.92
2022-10-23T15:21:09.732Z,22.90
2022-10-23T15:23:41.257Z,22.89
2022-10-23T15:26:13.261Z,22.90
2022-10-23T15:28:40.829Z,22.86
2022-10-23T15:31:29.614Z,22.85
2022-10-23T15:33:57.711Z,22.82
2022-10-23T15:36:24.816Z,22.82
2022-10-23T15:38:52.770Z,22.81
2022-10-23T15:41:29.780Z,22.80
2022-10-23T15:43:59.303Z,22.77
2022-10-23T15:46:26.712Z,22.75
2022-10-23T15:48:54.410Z,22.74
2022-10-23T15:51:21.874Z,22.72
2022-10-23T15:53:49.216Z,22.70
2022-10-23T15:56:16.215Z,22.67
2022-10-23T15:58:43.528Z,22.66
2022-10-23T16:01:10.848Z,22.62
2022-10-23T16:03:39.058Z,22.60
2022-10-23T16:06:13.474Z,22.58
2022-10-23T16:08:41.241Z,22.52
2022-10-23T16:11:27.744Z,22.49
2022-10-23T16:13:56.731Z,22.44
2022-10-23T16:16:24.394Z,22.41
2022-10-23T16:18:51.697Z,22.36
2022-10-23T16:21:24.423Z,22.32
2022-10-23T16:23:53.177Z,22.27
2022-10-23T16:26:20.855Z,22.21
2022-10-23T16:28:49.992Z,22.17
2022-10-23T16:31:20.681Z,22.13
2022-10-23T16:33:48.488Z,22.09
2022-10-23T16:36:16.155Z,22.04
2022-10-23T16:39:03.698Z,21.99
2022-10-23T16:41:49.334Z,21.94
2022-10-23T16:44:20.709Z,21.88
2022-10-23T16:47:09.751Z,21.85
2022-10-23T16:49:38.351Z,21.82
2022-10-23T16:52:06.566Z,21.79
2022-10-23T16:54:36.402Z,21.78
2022-10-23T16:57:04.164Z,21.76
2022-10-23T16:59:31.404Z,21.73
2022-10-23T17:01:58.728Z,21.69
2022-10-23T17:04:25.726Z,21.65
2022-10-23T17:06:52.662Z,21.65
2022-10-23T17:09:19.572Z,21.62
2022-10-23T17:11:47.980Z,21.60
2022-10-23T17:14:21.070Z,21.58
2022-10-23T17:16:51.640Z,21.55
2022-10-23T17:19:52.055Z,21.53
2022-10-23T17:22:10.858Z,21.51
2022-10-23T17:24:41.181Z,21.49
2022-10-23T17:27:08.472Z,21.46
2022-10-23T17:29:36.162Z,21.44
2022-10-23T17:32:04.183Z,21.42
2022-10-23T17:34:31.561Z,21.39
2022-10-23T17:36:58.501Z,21.36
2022-10-23T17:39:28.920Z,21.34
2022-10-23T17:41:56.610Z,21.31
2022-10-23T17:44:23.937Z,21.28
2022-10-23T17:46:55.777Z,21.26
2022-10-23T17:49:25.007Z,21.22
2022-10-23T17:51:55.478Z,21.20
2022-10-23T17:54:25.067Z,21.18
2022-10-23T17:56:52.340Z,21.14
2022-10-23T17:59:19.814Z,21.08
2022-10-23T18:04:30.034Z,21.03
2022-10-23T18:06:57.340Z,21.01
2022-10-23T18:09:24.516Z,20.99
2022-10-23T18:11:52.816Z,20.96
2022-10-23T18:14:21.682Z,20.96
2022-10-23T18:16:49.449Z,20.93
2022-10-23T18:19:18.280Z,20.94
2022-10-23T18:21:47.349Z,20.95
2022-10-23T18:24:15.521Z,20.95
2022-10-23T18:26:43.033Z,20.93
2022-10-23T18:29:11.981Z,20.91
2022-10-23T18:31:40.298Z,20.90
2022-10-23T18:34:19.707Z,20.90
2022-10-23T18:36:48.246Z,20.91
2022-10-23T18:39:22.263Z,20.93
2022-10-23T18:41:55.515Z,20.92
2022-10-23T18:44:24.107Z,20.93
2022-10-23T18:46:51.715Z,20.94
2022-10-23T18:49:20.209Z,20.94
2022-10-23T18:51:47.411Z,20.95
2022-10-23T18:54:17.853Z,20.94
2022-10-23T18:56:45.352Z,20.93
2022-10-23T18:59:18.718Z,20.90
2022-10-23T19:01:45.966Z,20.87
2022-10-23T19:04:15.826Z,20.87
2022-10-23T19:06:43.444Z,20.85
2022-10-23T19:09:14.051Z,20.83
2022-10-23T19:11:42.574Z,20.77
2022-10-23T19:14:10.198Z,20.74
2022-10-23T19:16:51.251Z,20.71
2022-10-23T19:19:24.649Z,20.70
2022-10-23T19:21:53.853Z,20.69
2022-10-23T19:24:27.091Z,20.68
2022-10-23T19:26:54.679Z,20.68
2022-10-23T19:29:26.621Z,20.69
2022-10-23T19:31:53.768Z,20.69
2022-10-23T19:34:22.930Z,20.67
2022-10-23T19:36:51.116Z,20.66
2022-10-23T19:39:18.678Z,20.66
2022-10-23T19:41:46.220Z,20.64
2022-10-23T19:44:14.818Z,20.63
2022-10-23T19:46:43.189Z,20.62
2022-10-23T19:49:12.055Z,20.57
2022-10-23T19:51:39.445Z,20.52
2022-10-23T19:54:06.776Z,20.49
2022-10-23T19:56:33.753Z,20.47
2022-10-23T19:59:01.155Z,20.44
2022-10-23T20:01:28.624Z,20.44
2022-10-23T20:03:56.031Z,20.44
2022-10-23T20:06:26.992Z,20.43
2022-10-23T20:08:54.846Z,20.41
2022-10-23T20:11:29.425Z,20.38
2022-10-23T20:13:59.742Z,20.38
2022-10-23T20:16:34.619Z,20.34
2022-10-23T20:19:07.262Z,20.33
2022-10-23T20:21:40.131Z,20.29
2022-10-23T20:24:08.640Z,20.28
2022-10-23T20:26:36.253Z,20.25
2022-10-23T20:29:03.650Z,20.23
2022-10-23T20:31:30.645Z,20.19
2022-10-23T20:33:57.550Z,20.17
2022-10-23T20:36:34.930Z,20.15
2022-10-23T20:39:06.897Z,20.13
2022-10-23T20:41:36.853Z,20.10
2022-10-23T20:44:09.670Z,20.05
2022-10-23T20:46:37.884Z,19.99
2022-10-23T20:49:04.933Z,19.96
2022-10-23T20:51:32.020Z,19.92
2022-10-23T20:53:59.122Z,19.90
2022-10-23T20:56:36.168Z,19.89
2022-10-23T20:59:07.498Z,19.89
2022-10-23T21:01:35.342Z,19.85
2022-10-23T21:04:03.766Z,19.84
2022-10-23T21:06:46.256Z,19.84
2022-10-23T21:09:24.197Z,19.85
2022-10-23T21:11:51.304Z,19.87
2022-10-23T21:14:18.357Z,19.85
2022-10-23T21:16:46.620Z,19.84
2022-10-23T21:19:16.004Z,19.85
2022-10-23T21:21:44.254Z,19.84
2022-10-23T21:24:16.420Z,19.82
2022-10-23T21:26:45.217Z,19.80
2022-10-23T21:29:20.855Z,19.78
2022-10-23T21:31:57.724Z,19.75
2022-10-23T21:34:26.385Z,19.71
2022-10-23T21:37:12.533Z,19.70
2022-10-23T21:39:42.022Z,19.67
2022-10-23T21:42:09.860Z,19.64
2022-10-23T21:44:36.987Z,19.62
2022-10-23T21:47:04.560Z,19.56
2022-10-23T21:49:32.207Z,19.55
2022-10-23T21:51:59.181Z,19.54
2022-10-23T21:54:26.469Z,19.52
2022-10-23T21:56:53.960Z,19.50
2022-10-23T21:59:27.876Z,19.49
2022-10-23T22:01:57.596Z,19.46
2022-10-23T22:04:24.741Z,19.45
2022-10-23T22:06:51.764Z,19.46
2022-10-23T22:09:21.600Z,19.45
2022-10-23T22:11:53.427Z,19.45
2022-10-23T22:14:21.716Z,19.44
2022-10-23T22:16:49.378Z,19.43
2022-10-23T22:19:18.596Z,19.43
2022-10-23T22:21:47.844Z,19.46
2022-10-23T22:24:16.044Z,19.44
2022-10-23T22:26:53.298Z,19.43
2022-10-23T22:29:25.682Z,19.42
2022-10-23T22:31:53.079Z,19.40
2022-10-23T22:34:41.180Z,19.39
2022-10-23T22:37:12.482Z,19.42
2022-10-23T22:39:40.478Z,19.42
2022-10-23T22:42:08.016Z,19.39
2022-10-23T22:44:34.942Z,19.35
2022-10-23T22:47:02.595Z,19.34
2022-10-23T22:49:29.870Z,19.31
2022-10-23T22:51:56.827Z,19.30
2022-10-23T22:54:24.151Z,19.31
2022-10-23T22:56:51.270Z,19.32
2022-10-23T22:59:18.419Z,19.35
2022-10-23T23:01:48.041Z,19.36
2022-10-23T23:04:37.858Z,19.37
2022-10-23T23:07:10.490Z,19.41
2022-10-23T23:09:44.119Z,19.43
2022-10-23T23:12:13.910Z,19.46
2022-10-23T23:14:41.457Z,19.46
2022-10-23T23:17:09.529Z,19.48
2022-10-23T23:19:37.244Z,19.47
2022-10-23T23:22:05.012Z,19.48
2022-10-23T23:24:32.162Z,19.47
2022-10-23T23:26:59.463Z,19.47
2022-10-23T23:29:28.327Z,19.48
2022-10-23T23:31:55.346Z,19.46
2022-10-23T23:34:22.240Z,19.45
2022-10-23T23:36:49.211Z,19.44
2022-10-23T23:39:16.096Z,19.43
2022-10-23T23:41:43.265Z,19.42
2022-10-23T23:44:10.430Z,19.39
2022-10-23T23:46:37.566Z,19.39
2022-10-23T23:49:04.630Z,19.39
2022-10-23T23:51:31.759Z,19.37
2022-10-23T23:53:58.695Z,19.38
2022-10-23T23:56:25.646Z,19.37
2022-10-23T23:58:52.809Z,19.36
